Weather at St-Augustin Heliport

Public forecast

Using degrees Celsius for public forecast. Weather courtesy of forecast.io.

Closest aviation weather report (METAR) to St-Augustin Heliport

Closest report is Lourdes de Blanc Sablon Airport, 56.2 nm (104.1 km) ENE. Retrieved 2021/01/26 04:00 UTC (25 minutes ago):

CYBX 260400Z 02009KT 15SM BKN053 BKN092 01/M00 A2965 RMK SC5AC2 SLP045

Closest aviation forecast (TAF) to St-Augustin Heliport

Closest forecast is Lourdes de Blanc Sablon Airport, 56.2 nm (104.1 km) ENE. Retrieved 2021-01-26 02:00 UTC (2 hours ago):

TAF CYBX 260138Z 2602/2614 03015G25KT P6SM SCT020 TEMPO 2602/2612 5SM -SN OVC020 BECMG 2607/2609 03020G30KT FM261200 02020G30KT P6SM FEW020 RMK NXT FCST BY 260800Z